Paulding, OH (45879)

6:14 PM EDT on April 29, 2017 (GMT -0400)
3 miles WNW of Melrose | | Change Station

Elev 722 ft 41.10 °N, 84.48 °W | Updated 2 seconds ago

Overcast
Overcast
48.2 °F
Feels Like 48 °F
N
0.0
Wind Variable Wind from NNE
Gusts 0.0 mph

Today
High -- | Low -- °F
--% Chance of Precip.
Yesterday
High -- | Low -- °F
Precip. -- in
Pressure 30.16 in
Visibility 10.0 miles
Clouds Mostly Cloudy 1100 ft
Overcast 2200 ft
Windchill 48 °F
Dew Point 45 °F
Humidity 88%
Rainfall 0.11 in
Snow Depth Not available.
6:38 AM 8:33 PM
Waxing Crescent, 17% visible
METAR KDFI 292153Z AUTO 06011KT 10SM BKN011 OVC022 08/06 A3015 RMK AO2 SLP212 T00780056 $
Pressure 30.16 in
Visibility 10.0 miles
Clouds Mostly Cloudy 1100 ft
Overcast 2200 ft
Windchill 48 °F
Dew Point 45 °F
Humidity 88%
Rainfall 0.11 in
Snow Depth Not available.
6:38 AM 8:33 PM
Waxing Crescent, 17% visible
METAR KDFI 292153Z AUTO 06011KT 10SM BKN011 OVC022 08/06 A3015 RMK AO2 SLP212 T00780056 $

Get Severe Weather Alerts

Thanks for signing up!

Be on the lookout for a verification email in your inbox.

You'll start receiving the daily forecast at 8 AM.

×

10-Day Weather Forecast

Almanac

Astronomy

Apr. 29, 2017 Rise Set
Actual Time
Civil Twilight
Nautical Twilight
Astronomical Twilight
Moon
Length of Visible Light
Length of Day
Tomorrow will be .
, % of the Moon is Illuminated

Today's Extremes

State Highs State Lows

Community

WunderPhotos

WunderBlog® & News

Nearby

Air Quality

  Air Quality AQ Index Pollutant
Not available.

Snow Depth

Station Depth Elevation

Earthquake Activity

City Distance Mag. Time & Date
Minimum magnitude displayed is 2.5.

Coastal Water Temperatures

Place Temperature

Stations

Nearby Weather Stations

Station Location Temp. Windchill Dew Point Humidity Wind Precip. Elev Updated Type
                   

Watches & Warnings

There are currently no watches in effect.